Time;durP1;ratioP1;P1;durP2;ratioP2;P2;SDS_P1;SDS_P2;PMS_P1;PMS_P2;Temp;Humidity;BMP_temperature;BMP_pressure;BME280_temperature;BME280_humidity;BME280_pressure;Samples;Min_cycle;Max_cycle;Signal;HPM_P1;HPM_P2
2023/08/24 00:01:02;;;;;;;;;12.00;12.00;;;;;;;;5081100;28;45136;-73
2023/08/24 00:03:27;;;;;;;;;11.00;11.00;;;;;;;;5080661;28;45317;-74
2023/08/24 00:05:52;;;;;;;;;10.33;10.33;;;;;;;;5080434;28;46327;-74
2023/08/24 00:08:17;;;;;;;;;11.33;11.33;;;;;;;;5080563;28;45413;-74
2023/08/24 00:10:43;;;;;;;;;12.67;11.67;;;;;;;;5080742;28;45298;-74
2023/08/24 00:13:09;;;;;;;;;11.00;10.33;;;;;;;;5080629;28;45456;-74
2023/08/24 00:15:35;;;;;;;;;12.00;12.00;;;;;;;;5080431;28;45329;-74
2023/08/24 00:18:01;;;;;;;;;12.00;12.00;;;;;;;;5080598;28;45297;-74
2023/08/24 00:20:27;;;;;;;;;13.00;12.67;;;;;;;;5062069;28;45369;-74
2023/08/24 00:22:52;;;;;;;;;11.33;10.00;;;;;;;;5080281;28;45316;-74
2023/08/24 00:25:18;;;;;;;;;13.67;12.33;;;;;;;;5080387;28;46319;-74
2023/08/24 00:27:43;;;;;;;;;12.00;11.67;;;;;;;;5061897;28;45360;-74
2023/08/24 00:30:10;;;;;;;;;10.67;10.67;;;;;;;;5096039;27;45315;-74
2023/08/24 00:32:35;;;;;;;;;14.00;14.00;;;;;;;;5100686;27;45323;-74
2023/08/24 00:35:10;;;;;;;;;13.33;13.33;;;;;;;;5096819;27;46316;-74
2023/08/24 00:37:35;;;;;;;;;12.00;12.00;;;;;;;;5080124;28;45312;-74
2023/08/24 00:40:19;;;;;;;;;14.67;13.67;;;;;;;;5061645;28;45299;-74
2023/08/24 00:42:46;;;;;;;;;10.00;10.00;;;;;;;;5079890;28;46066;-73
2023/08/24 00:45:11;;;;;;;;;13.00;13.00;;;;;;;;5079933;28;46109;-74
2023/08/24 00:47:42;;;;;;;;;11.00;11.00;;;;;;;;5061704;28;45833;-74
2023/08/24 00:50:08;;;;;;;;;12.67;11.33;;;;;;;;5079834;28;45298;-74
2023/08/24 00:52:33;;;;;;;;;12.67;12.67;;;;;;;;5079917;28;45384;-74
2023/08/24 00:54:59;;;;;;;;;13.00;13.00;;;;;;;;5079602;28;46036;-73
2023/08/24 00:57:27;;;;;;;;;13.00;12.67;;;;;;;;5080005;28;45512;-74
2023/08/24 00:59:53;;;;;;;;;14.00;13.00;;;;;;;;5080136;28;45382;-73
2023/08/24 01:02:18;;;;;;;;;11.67;11.67;;;;;;;;5079784;28;45287;-74
2023/08/24 01:04:46;;;;;;;;;11.67;11.67;;;;;;;;5079435;28;46088;-74
2023/08/24 01:07:12;;;;;;;;;13.00;11.33;;;;;;;;5079704;28;45270;-74
2023/08/24 01:09:37;;;;;;;;;14.00;13.33;;;;;;;;5079934;28;45364;-74
2023/08/24 01:12:08;;;;;;;;;11.00;11.00;;;;;;;;5079648;28;45225;-74
2023/08/24 01:14:45;;;;;;;;;12.00;12.00;;;;;;;;5079202;28;46694;-73
2023/08/24 01:17:14;;;;;;;;;7.00;7.00;;;;;;;;5079723;28;45371;-74
2023/08/24 01:19:43;;;;;;;;;13.00;13.00;;;;;;;;5082229;28;45165;-73
2023/08/24 01:22:26;;;;;;;;;12.67;12.33;;;;;;;;5064715;28;46284;-74
2023/08/24 01:25:07;;;;;;;;;13.67;13.00;;;;;;;;5083242;28;46138;-73
2023/08/24 01:27:34;;;;;;;;;13.33;11.00;;;;;;;;5083269;28;45347;-74
2023/08/24 01:30:00;;;;;;;;;16.00;14.33;;;;;;;;5064859;28;45355;-74
2023/08/24 01:32:25;;;;;;;;;12.00;12.00;;;;;;;;5083117;28;45259;-74
2023/08/24 01:34:50;;;;;;;;;10.00;10.00;;;;;;;;5082965;28;45212;-74
2023/08/24 01:37:16;;;;;;;;;15.00;13.67;;;;;;;;5064666;28;45338;-74
2023/08/24 01:39:48;;;;;;;;;12.67;12.00;;;;;;;;5083247;28;45309;-74
2023/08/24 01:42:16;;;;;;;;;12.67;10.67;;;;;;;;5082901;28;45778;-74
2023/08/24 01:44:42;;;;;;;;;13.67;12.00;;;;;;;;5082923;28;45609;-74
2023/08/24 01:47:11;;;;;;;;;12.00;10.67;;;;;;;;5064550;28;45666;-74
2023/08/24 01:49:36;;;;;;;;;13.00;13.00;;;;;;;;5082804;28;45350;-74
2023/08/24 01:52:02;;;;;;;;;13.67;13.00;;;;;;;;5082791;28;45267;-73
2023/08/24 01:54:28;;;;;;;;;13.33;13.33;;;;;;;;5082515;28;45270;-74
2023/08/24 01:56:53;;;;;;;;;10.33;10.33;;;;;;;;5082811;28;45319;-73
2023/08/24 01:59:18;;;;;;;;;12.00;12.00;;;;;;;;5082961;28;45273;-73
2023/08/24 02:01:43;;;;;;;;;12.00;12.00;;;;;;;;5064258;28;47223;-73
2023/08/24 02:04:08;;;;;;;;;11.00;11.00;;;;;;;;5082480;28;45393;-73
2023/08/24 02:06:34;;;;;;;;;13.33;13.33;;;;;;;;5082550;28;45234;-73
2023/08/24 02:08:59;;;;;;;;;13.67;12.00;;;;;;;;5082557;28;45525;-74
2023/08/24 02:11:27;;;;;;;;;12.67;12.67;;;;;;;;5082593;28;45437;-74
2023/08/24 02:13:52;;;;;;;;;12.00;12.00;;;;;;;;5082426;28;46197;-73
2023/08/24 02:16:17;;;;;;;;;14.00;12.33;;;;;;;;5064177;28;45363;-74
2023/08/24 02:18:42;;;;;;;;;14.00;14.00;;;;;;;;5082768;28;45478;-73
2023/08/24 02:21:08;;;;;;;;;11.00;10.33;;;;;;;;5082178;28;45532;-74
2023/08/24 02:23:33;;;;;;;;;13.00;13.00;;;;;;;;5082343;28;46086;-74
2023/08/24 02:25:59;;;;;;;;;12.00;12.00;;;;;;;;5082268;28;45228;-73
2023/08/24 02:28:24;;;;;;;;;13.00;12.00;;;;;;;;5083491;27;45333;-74
2023/08/24 02:30:50;;;;;;;;;12.00;12.00;;;;;;;;5101367;27;45410;-74
2023/08/24 02:33:15;;;;;;;;;12.00;11.33;;;;;;;;5102688;27;45333;-74
2023/08/24 02:35:40;;;;;;;;;13.00;13.00;;;;;;;;5102328;27;45216;-74
2023/08/24 02:38:05;;;;;;;;;13.00;13.00;;;;;;;;5084333;27;45265;-73
2023/08/24 02:40:30;;;;;;;;;13.00;13.00;;;;;;;;5102638;27;45463;-73
2023/08/24 02:42:56;;;;;;;;;15.67;12.00;;;;;;;;5102130;27;46184;-73
2023/08/24 02:45:21;;;;;;;;;11.67;11.67;;;;;;;;5102623;27;45307;-74
2023/08/24 02:47:46;;;;;;;;;14.00;14.00;;;;;;;;5084146;27;45318;-74
2023/08/24 02:50:11;;;;;;;;;15.00;15.00;;;;;;;;5102096;27;45228;-73
2023/08/24 02:52:36;;;;;;;;;15.33;13.67;;;;;;;;5102190;27;46302;-73
2023/08/24 02:55:02;;;;;;;;;14.33;14.33;;;;;;;;5102122;27;45588;-74
2023/08/24 02:57:27;;;;;;;;;12.67;12.00;;;;;;;;5102527;27;45573;-74
2023/08/24 02:59:52;;;;;;;;;13.67;13.67;;;;;;;;5102327;27;45620;-73
2023/08/24 03:02:17;;;;;;;;;12.67;12.33;;;;;;;;5083583;27;47161;-73
2023/08/24 03:04:42;;;;;;;;;12.00;11.67;;;;;;;;5083752;27;45642;-74
2023/08/24 03:07:10;;;;;;;;;13.00;13.00;;;;;;;;5102426;27;45302;-73
2023/08/24 03:09:35;;;;;;;;;13.00;13.00;;;;;;;;5102009;27;45322;-73
2023/08/24 03:12:00;;;;;;;;;13.00;12.00;;;;;;;;5102054;27;45261;-73
2023/08/24 03:14:25;;;;;;;;;16.00;15.67;;;;;;;;5102046;27;45195;-74
2023/08/24 03:16:51;;;;;;;;;14.00;14.00;;;;;;;;5083754;27;45319;-73
2023/08/24 03:19:17;;;;;;;;;11.33;11.00;;;;;;;;5101837;27;45307;-74
2023/08/24 03:21:43;;;;;;;;;15.33;14.00;;;;;;;;5100388;27;45413;-73
2023/08/24 03:24:08;;;;;;;;;15.33;13.00;;;;;;;;5101854;27;45334;-74
2023/08/24 03:26:33;;;;;;;;;14.33;14.33;;;;;;;;5082403;27;45324;-73
2023/08/24 03:28:59;;;;;;;;;12.33;12.33;;;;;;;;5095731;27;45339;-74
2023/08/24 03:31:27;;;;;;;;;13.33;13.33;;;;;;;;5081287;28;46040;-73
2023/08/24 03:33:52;;;;;;;;;12.33;12.33;;;;;;;;5081343;28;45352;-74
2023/08/24 03:36:18;;;;;;;;;14.67;14.67;;;;;;;;5062820;28;45410;-74
2023/08/24 03:38:43;;;;;;;;;15.00;15.00;;;;;;;;5081195;28;45673;-74
2023/08/24 03:41:09;;;;;;;;;13.67;13.33;;;;;;;;5080301;28;45339;-73
2023/08/24 03:43:35;;;;;;;;;15.00;15.00;;;;;;;;5081171;28;45407;-73
2023/08/24 03:46:00;;;;;;;;;14.00;13.00;;;;;;;;5081187;28;45281;-73
2023/08/24 03:48:26;;;;;;;;;12.00;12.00;;;;;;;;5062590;28;46173;-73
2023/08/24 03:50:55;;;;;;;;;16.33;16.33;;;;;;;;5080682;28;45327;-73
2023/08/24 03:53:20;;;;;;;;;14.67;14.67;;;;;;;;5080842;28;45252;-73
2023/08/24 03:55:49;;;;;;;;;14.00;14.00;;;;;;;;5081010;28;45307;-73
2023/08/24 03:58:14;;;;;;;;;13.33;13.33;;;;;;;;5062532;28;45979;-73
2023/08/24 04:00:40;;;;;;;;;13.67;13.67;;;;;;;;5080781;28;46037;-73
2023/08/24 04:03:05;;;;;;;;;13.00;13.00;;;;;;;;5080467;28;45319;-75
2023/08/24 04:05:31;;;;;;;;;15.00;13.67;;;;;;;;5080602;28;45339;-75
2023/08/24 04:07:56;;;;;;;;;14.00;14.00;;;;;;;;5080878;28;45252;-75
2023/08/24 04:10:21;;;;;;;;;13.33;13.00;;;;;;;;5080649;28;45316;-74
2023/08/24 04:12:46;;;;;;;;;14.33;14.33;;;;;;;;5080564;28;45247;-75
2023/08/24 04:15:12;;;;;;;;;15.67;15.67;;;;;;;;5080763;28;45472;-74
2023/08/24 04:17:37;;;;;;;;;14.00;14.00;;;;;;;;5079871;28;45521;-74
2023/08/24 04:20:04;;;;;;;;;13.00;13.00;;;;;;;;5079838;28;45212;-75
2023/08/24 04:22:29;;;;;;;;;13.67;13.67;;;;;;;;5062068;28;45970;-74
2023/08/24 04:24:54;;;;;;;;;15.00;14.00;;;;;;;;5080710;28;45279;-74
2023/08/24 04:27:21;;;;;;;;;15.00;15.00;;;;;;;;5080396;28;45461;-74
2023/08/24 04:29:46;;;;;;;;;15.00;13.33;;;;;;;;5092948;27;45372;-74
2023/08/24 04:32:12;;;;;;;;;16.33;14.00;;;;;;;;5100850;27;45515;-75
2023/08/24 04:34:37;;;;;;;;;14.33;14.33;;;;;;;;5082175;27;45370;-74
2023/08/24 04:37:02;;;;;;;;;15.00;15.00;;;;;;;;5082286;27;45371;-75
2023/08/24 04:39:29;;;;;;;;;17.67;16.33;;;;;;;;5100529;27;45463;-74
2023/08/24 04:41:54;;;;;;;;;14.00;14.00;;;;;;;;5100406;27;45398;-74
2023/08/24 04:44:19;;;;;;;;;15.67;14.67;;;;;;;;5100692;27;45702;-74
2023/08/24 04:46:45;;;;;;;;;12.67;12.67;;;;;;;;5100569;27;45375;-74
2023/08/24 04:49:10;;;;;;;;;13.00;13.00;;;;;;;;5100342;27;45320;-74
2023/08/24 04:51:35;;;;;;;;;15.00;13.33;;;;;;;;5100153;27;45288;-74
2023/08/24 04:54:00;;;;;;;;;15.00;15.00;;;;;;;;5061061;27;45237;-74
2023/08/24 04:56:25;;;;;;;;;14.67;14.67;;;;;;;;5041168;28;46275;-74
2023/08/24 04:58:57;;;;;;;;;13.00;12.33;;;;;;;;5041345;28;47543;-75
2023/08/24 05:01:24;;;;;;;;;15.00;14.67;;;;;;;;5059692;28;45502;-74
2023/08/24 05:03:50;;;;;;;;;15.33;15.33;;;;;;;;5066972;28;45399;-75
2023/08/24 05:06:15;;;;;;;;;14.33;14.33;;;;;;;;5068875;28;45412;-74
2023/08/24 05:08:40;;;;;;;;;13.67;13.67;;;;;;;;5068827;28;45429;-74
2023/08/24 05:11:13;;;;;;;;;14.33;14.33;;;;;;;;5050293;28;45803;-75
2023/08/24 05:13:38;;;;;;;;;15.00;15.00;;;;;;;;5072012;28;45304;-74
2023/08/24 05:16:03;;;;;;;;;16.00;16.00;;;;;;;;5079575;28;45403;-75
2023/08/24 05:18:29;;;;;;;;;15.33;14.00;;;;;;;;5079723;28;45326;-75
2023/08/24 05:20:54;;;;;;;;;14.00;14.00;;;;;;;;5079508;28;45427;-75
2023/08/24 05:23:19;;;;;;;;;11.67;11.67;;;;;;;;5061546;28;45429;-76
2023/08/24 05:25:44;;;;;;;;;15.33;14.00;;;;;;;;5079692;28;45223;-75
2023/08/24 05:28:10;;;;;;;;;14.00;14.00;;;;;;;;5079557;28;45501;-76
2023/08/24 05:30:35;;;;;;;;;13.67;13.00;;;;;;;;5098920;27;45319;-76
2023/08/24 05:33:00;;;;;;;;;15.00;14.33;;;;;;;;5100173;27;45265;-77
2023/08/24 05:35:27;;;;;;;;;16.00;16.00;;;;;;;;5099612;27;45298;-76
2023/08/24 05:37:52;;;;;;;;;14.33;14.00;;;;;;;;5099940;27;45989;-74
2023/08/24 05:40:17;;;;;;;;;13.00;13.00;;;;;;;;5081382;27;45329;-76
2023/08/24 05:42:42;;;;;;;;;15.67;15.67;;;;;;;;5099828;27;45291;-77
2023/08/24 05:45:08;;;;;;;;;16.33;15.00;;;;;;;;5099811;27;45149;-75
2023/08/24 05:47:33;;;;;;;;;16.00;15.50;;;;;;;;5099680;27;46351;-76
2023/08/24 05:49:58;;;;;;;;;15.00;15.00;;;;;;;;5099650;27;45295;-76
2023/08/24 05:52:23;;;;;;;;;14.00;14.00;;;;;;;;5099777;27;45290;-76
2023/08/24 05:54:49;;;;;;;;;13.67;13.67;;;;;;;;5099460;27;45260;-75
2023/08/24 05:57:14;;;;;;;;;13.33;13.33;;;;;;;;5099841;27;45326;-76
2023/08/24 05:59:39;;;;;;;;;13.00;13.00;;;;;;;;5099761;27;45330;-75
2023/08/24 06:02:05;;;;;;;;;14.00;14.00;;;;;;;;5099825;27;45436;-75
2023/08/24 06:04:30;;;;;;;;;13.67;13.33;;;;;;;;5100102;27;45305;-74
2023/08/24 06:06:55;;;;;;;;;15.67;15.67;;;;;;;;5103041;27;45515;-76
2023/08/24 06:09:21;;;;;;;;;15.67;14.33;;;;;;;;5080276;27;45367;-75
2023/08/24 06:11:46;;;;;;;;;17.67;16.00;;;;;;;;5053734;28;46175;-76
2023/08/24 06:14:11;;;;;;;;;14.33;13.67;;;;;;;;5070916;28;45540;-76
2023/08/24 06:16:36;;;;;;;;;12.00;12.00;;;;;;;;5076222;28;45468;-75
2023/08/24 06:19:03;;;;;;;;;14.67;14.00;;;;;;;;5076011;28;45710;-76
2023/08/24 06:21:28;;;;;;;;;15.00;15.00;;;;;;;;5061914;28;45413;-76
2023/08/24 06:23:53;;;;;;;;;15.00;13.33;;;;;;;;5062166;28;45327;-78
2023/08/24 06:26:18;;;;;;;;;13.33;13.33;;;;;;;;5062144;28;46543;-77
2023/08/24 06:28:44;;;;;;;;;13.67;13.67;;;;;;;;5067732;27;45599;-77
2023/08/24 06:31:09;;;;;;;;;16.00;14.00;;;;;;;;5067153;28;45185;-75
2023/08/24 06:33:34;;;;;;;;;13.00;13.00;;;;;;;;5082448;28;45758;-76
2023/08/24 06:36:01;;;;;;;;;13.33;13.33;;;;;;;;5081327;28;45303;-76
2023/08/24 06:38:26;;;;;;;;;14.00;14.00;;;;;;;;5082314;28;45605;-77
2023/08/24 06:40:51;;;;;;;;;12.00;12.00;;;;;;;;5082271;28;45256;-74
2023/08/24 06:43:16;;;;;;;;;14.33;14.33;;;;;;;;5081771;28;45418;-74
2023/08/24 06:45:43;;;;;;;;;17.00;15.00;;;;;;;;5082000;28;46104;-73
2023/08/24 06:48:08;;;;;;;;;15.00;15.00;;;;;;;;5081984;28;45367;-74
2023/08/24 06:50:33;;;;;;;;;13.67;12.33;;;;;;;;5080125;28;45418;-74
2023/08/24 06:52:59;;;;;;;;;12.00;12.00;;;;;;;;5071224;28;45477;-74
2023/08/24 06:55:25;;;;;;;;;17.33;14.67;;;;;;;;5070049;28;45825;-74
2023/08/24 06:57:50;;;;;;;;;12.67;12.67;;;;;;;;5053808;28;45373;-74
2023/08/24 07:00:16;;;;;;;;;15.33;14.00;;;;;;;;5070627;28;45374;-73
2023/08/24 07:02:41;;;;;;;;;16.33;15.33;;;;;;;;5048933;28;46257;-74
2023/08/24 07:05:08;;;;;;;;;15.67;15.00;;;;;;;;5043042;28;48121;-73
2023/08/24 07:07:33;;;;;;;;;14.00;14.00;;;;;;;;5061284;28;45339;-74
2023/08/24 07:09:59;;;;;;;;;15.33;14.00;;;;;;;;5061492;28;45327;-74
2023/08/24 07:12:24;;;;;;;;;10.33;10.33;;;;;;;;5061293;28;45404;-74
2023/08/24 07:14:49;;;;;;;;;14.00;14.00;;;;;;;;5061316;28;45306;-74
2023/08/24 07:17:14;;;;;;;;;14.00;14.00;;;;;;;;5060439;28;45268;-73
2023/08/24 07:19:39;;;;;;;;;15.67;15.67;;;;;;;;5058047;28;45146;-74
2023/08/24 07:22:04;;;;;;;;;14.67;14.67;;;;;;;;5078220;28;45412;-74
2023/08/24 07:24:30;;;;;;;;;16.67;14.67;;;;;;;;5071999;28;45276;-74
2023/08/24 07:26:55;;;;;;;;;14.33;14.00;;;;;;;;5069035;28;45362;-75
2023/08/24 07:29:21;;;;;;;;;14.00;14.00;;;;;;;;5074314;27;45294;-72
2023/08/24 07:31:46;;;;;;;;;12.67;12.67;;;;;;;;5060510;28;45549;-71
2023/08/24 07:34:11;;;;;;;;;14.67;14.67;;;;;;;;5060235;28;45367;-71
2023/08/24 07:36:36;;;;;;;;;14.33;14.33;;;;;;;;5061057;28;45911;-71
2023/08/24 07:39:02;;;;;;;;;15.00;14.00;;;;;;;;5080579;28;45212;-71
2023/08/24 07:41:27;;;;;;;;;14.00;14.00;;;;;;;;5080901;28;45521;-71
2023/08/24 07:43:52;;;;;;;;;16.00;15.67;;;;;;;;5080964;28;45349;-71
2023/08/24 07:46:17;;;;;;;;;13.00;13.00;;;;;;;;5081147;28;45366;-73
2023/08/24 07:48:43;;;;;;;;;12.00;12.00;;;;;;;;5070983;28;45218;-72
2023/08/24 07:51:08;;;;;;;;;12.67;10.67;;;;;;;;5068256;28;45518;-73
2023/08/24 07:53:33;;;;;;;;;13.33;12.67;;;;;;;;5061740;28;45462;-74
2023/08/24 07:55:59;;;;;;;;;16.33;14.33;;;;;;;;5059939;28;45337;-74
2023/08/24 07:58:27;;;;;;;;;13.67;13.67;;;;;;;;5060170;28;45342;-74
2023/08/24 08:00:52;;;;;;;;;13.33;13.33;;;;;;;;5062602;28;45577;-75
2023/08/24 08:03:18;;;;;;;;;12.00;12.00;;;;;;;;5072718;28;46191;-75
2023/08/24 08:05:43;;;;;;;;;15.67;15.67;;;;;;;;5049809;28;45936;-75
2023/08/24 08:08:08;;;;;;;;;14.33;13.33;;;;;;;;5064683;27;45320;-77
2023/08/24 08:10:33;;;;;;;;;13.33;13.33;;;;;;;;5050592;28;46123;-74
2023/08/24 08:12:59;;;;;;;;;12.67;12.67;;;;;;;;5067714;27;46627;-74
2023/08/24 08:15:27;;;;;;;;;16.00;15.33;;;;;;;;5070006;27;45481;-74
2023/08/24 08:17:52;;;;;;;;;17.33;15.00;;;;;;;;5069313;27;45228;-74
2023/08/24 08:20:17;;;;;;;;;13.67;13.67;;;;;;;;5069123;27;45280;-74
2023/08/24 08:22:43;;;;;;;;;15.00;14.67;;;;;;;;5073807;27;45621;-75
2023/08/24 08:25:08;;;;;;;;;14.00;13.33;;;;;;;;5060014;27;45373;-73
2023/08/24 08:27:33;;;;;;;;;14.00;14.00;;;;;;;;5060359;27;45466;-75
2023/08/24 08:29:59;;;;;;;;;16.67;15.67;;;;;;;;5062789;27;45378;-75
2023/08/24 08:32:27;;;;;;;;;16.00;16.00;;;;;;;;5068580;27;46356;-75
2023/08/24 08:34:56;;;;;;;;;16.67;16.67;;;;;;;;5042601;27;45400;-76
2023/08/24 08:37:22;;;;;;;;;14.67;14.67;;;;;;;;5063237;27;45364;-77
2023/08/24 08:39:47;;;;;;;;;14.67;14.67;;;;;;;;5058847;27;45390;-76
2023/08/24 08:42:13;;;;;;;;;16.00;15.67;;;;;;;;5063098;27;46194;-75
2023/08/24 08:44:40;;;;;;;;;15.00;14.33;;;;;;;;5058143;27;45406;-76
2023/08/24 08:47:08;;;;;;;;;14.67;14.67;;;;;;;;5057097;27;45664;-76
2023/08/24 08:49:35;;;;;;;;;16.00;16.00;;;;;;;;5056235;27;45459;-75
2023/08/24 08:52:00;;;;;;;;;18.67;18.33;;;;;;;;5048715;28;47209;-77
2023/08/24 08:54:25;;;;;;;;;13.00;12.67;;;;;;;;5044345;28;45364;-74
2023/08/24 08:56:51;;;;;;;;;13.33;11.33;;;;;;;;5056220;28;45569;-74
2023/08/24 08:59:17;;;;;;;;;14.00;14.00;;;;;;;;5056529;28;45624;-75
2023/08/24 09:01:43;;;;;;;;;15.67;15.67;;;;;;;;5059448;28;45332;-75
2023/08/24 09:04:09;;;;;;;;;13.67;13.67;;;;;;;;5059291;28;45268;-75
2023/08/24 09:06:34;;;;;;;;;15.00;15.00;;;;;;;;5059088;28;45439;-75
2023/08/24 09:09:00;;;;;;;;;16.33;15.67;;;;;;;;5041379;28;46856;-75
2023/08/24 09:11:25;;;;;;;;;14.33;14.33;;;;;;;;5059529;28;46105;-75
2023/08/24 09:13:50;;;;;;;;;16.00;15.00;;;;;;;;5059171;28;45422;-76
2023/08/24 09:16:16;;;;;;;;;17.00;15.67;;;;;;;;5059622;28;45339;-75
2023/08/24 09:18:44;;;;;;;;;16.00;16.00;;;;;;;;5060204;28;45360;-75
2023/08/24 09:21:10;;;;;;;;;14.33;14.00;;;;;;;;5073525;28;45340;-76
2023/08/24 09:23:35;;;;;;;;;15.00;15.00;;;;;;;;5061287;28;45316;-76
2023/08/24 09:26:00;;;;;;;;;16.33;15.00;;;;;;;;5074296;27;45303;-73
2023/08/24 09:28:25;;;;;;;;;16.67;16.67;;;;;;;;5073260;27;45441;-74
2023/08/24 09:30:54;;;;;;;;;16.33;16.33;;;;;;;;5083317;27;46027;-74
2023/08/24 09:33:21;;;;;;;;;45.33;37.00;;;;;;;;5065271;27;45396;-75
2023/08/24 09:35:50;;;;;;;;;20.33;19.33;;;;;;;;5049979;28;45470;-75
2023/08/24 09:38:18;;;;;;;;;14.67;14.33;;;;;;;;5064127;27;45402;-75
2023/08/24 09:40:50;;;;;;;;;17.33;17.33;;;;;;;;5048780;28;47166;-75
2023/08/24 09:43:16;;;;;;;;;15.33;15.33;;;;;;;;5061733;27;45438;-75
2023/08/24 09:45:51;;;;;;;;;19.00;17.67;;;;;;;;5066886;27;45443;-76
2023/08/24 09:48:17;;;;;;;;;16.00;16.00;;;;;;;;5062625;27;45847;-75
2023/08/24 09:50:44;;;;;;;;;41.67;35.33;;;;;;;;5043137;28;48324;-74
2023/08/24 09:53:13;;;;;;;;;118.25;112.75;;;;;;;;5061647;27;45694;-75
2023/08/24 09:55:39;;;;;;;;;22.00;20.67;;;;;;;;5072976;27;46414;-74
2023/08/24 09:58:08;;;;;;;;;16.00;16.00;;;;;;;;5081043;28;45376;-75
2023/08/24 10:00:34;;;;;;;;;17.00;17.00;;;;;;;;5082626;28;45304;-75
2023/08/24 10:03:01;;;;;;;;;28.33;24.67;;;;;;;;5082408;28;45490;-73
2023/08/24 10:05:27;;;;;;;;;16.00;16.00;;;;;;;;5082047;28;45450;-73
2023/08/24 10:07:54;;;;;;;;;19.67;18.67;;;;;;;;5082616;28;45358;-73
2023/08/24 10:10:19;;;;;;;;;16.67;16.00;;;;;;;;5082465;28;45362;-73
2023/08/24 10:12:48;;;;;;;;;28.00;26.33;;;;;;;;5082595;28;45314;-73
2023/08/24 10:15:14;;;;;;;;;39.33;32.33;;;;;;;;5082256;28;45328;-73
2023/08/24 10:17:39;;;;;;;;;19.00;17.67;;;;;;;;5082412;28;45362;-73
2023/08/24 10:20:06;;;;;;;;;14.67;14.67;;;;;;;;5063971;28;48026;-76
2023/08/24 10:22:33;;;;;;;;;16.00;16.00;;;;;;;;5082320;28;45417;-76
2023/08/24 10:24:59;;;;;;;;;14.33;14.33;;;;;;;;5082494;27;45771;-78
2023/08/24 10:27:26;;;;;;;;;13.67;13.67;;;;;;;;5063979;28;46527;-76
2023/08/24 10:29:51;;;;;;;;;14.67;14.67;;;;;;;;5095388;27;45316;-75
2023/08/24 10:32:17;;;;;;;;;16.33;15.33;;;;;;;;5102676;27;45347;-74
2023/08/24 10:34:42;;;;;;;;;13.33;13.00;;;;;;;;5102402;27;45223;-74
2023/08/24 10:37:11;;;;;;;;;20.67;19.33;;;;;;;;5098166;27;45253;-74
2023/08/24 10:39:40;;;;;;;;;14.00;13.00;;;;;;;;5082043;28;45339;-74
2023/08/24 10:42:10;;;;;;;;;15.00;15.00;;;;;;;;5081105;28;45273;-73
2023/08/24 10:44:36;;;;;;;;;15.00;15.00;;;;;;;;5082088;28;45326;-76
2023/08/24 10:47:10;;;;;;;;;15.00;15.00;;;;;;;;5082014;28;45377;-73
2023/08/24 10:49:37;;;;;;;;;15.33;15.33;;;;;;;;5059548;28;47358;-73
2023/08/24 10:52:19;;;;;;;;;14.33;14.33;;;;;;;;5067383;28;45402;-74
2023/08/24 10:54:46;;;;;;;;;16.33;15.33;;;;;;;;5078151;28;45513;-73
2023/08/24 10:57:19;;;;;;;;;14.00;13.33;;;;;;;;5063587;28;47462;-75
2023/08/24 10:59:45;;;;;;;;;15.67;15.67;;;;;;;;5081778;28;46180;-73
2023/08/24 11:02:18;;;;;;;;;17.33;17.00;;;;;;;;5074611;28;45460;-75
2023/08/24 11:05:03;;;;;;;;;17.00;16.33;;;;;;;;5070740;28;45363;-74
2023/08/24 11:07:28;;;;;;;;;16.00;16.00;;;;;;;;5065143;28;45307;-74
2023/08/24 11:09:53;;;;;;;;;17.00;15.67;;;;;;;;5061788;28;45441;-75
2023/08/24 11:12:18;;;;;;;;;14.67;14.67;;;;;;;;5050536;28;46726;-76
2023/08/24 11:14:58;;;;;;;;;14.00;13.67;;;;;;;;5068499;28;45345;-75
2023/08/24 11:17:24;;;;;;;;;13.33;13.00;;;;;;;;5067437;28;45279;-76
2023/08/24 11:19:50;;;;;;;;;15.67;15.67;;;;;;;;5049609;28;46185;-74
2023/08/24 11:22:17;;;;;;;;;14.00;14.00;;;;;;;;5069146;28;45269;-74
2023/08/24 11:24:42;;;;;;;;;8.33;8.33;;;;;;;;5053148;28;45392;-77
2023/08/24 11:27:08;;;;;;;;;9.25;8.00;;;;;;;;5071469;28;45493;-74
2023/08/24 11:29:33;;;;;;;;;9.33;9.00;;;;;;;;5074910;27;45346;-73
2023/08/24 11:31:59;;;;;;;;;7.33;6.00;;;;;;;;5065415;28;45221;-73
2023/08/24 11:34:24;;;;;;;;;5.75;5.75;;;;;;;;5072556;27;45833;-76
2023/08/24 11:36:50;;;;;;;;;17.67;17.00;;;;;;;;5062239;27;46017;-75
2023/08/24 11:39:16;;;;;;;;;23.67;22.00;;;;;;;;5074678;27;45366;-74
2023/08/24 11:41:41;;;;;;;;;11.00;9.00;;;;;;;;5061634;27;45486;-75
2023/08/24 11:44:06;;;;;;;;;9.00;9.00;;;;;;;;5063578;27;45647;-76
2023/08/24 11:46:31;;;;;;;;;27.33;25.33;;;;;;;;5061609;27;45553;-75
2023/08/24 11:48:58;;;;;;;;;40.33;34.33;;;;;;;;5068721;27;46061;-79
2023/08/24 11:51:23;;;;;;;;;33.33;30.00;;;;;;;;5049054;28;45869;-74
2023/08/24 11:53:49;;;;;;;;;18.00;16.33;;;;;;;;5091233;27;45197;-75
2023/08/24 11:56:16;;;;;;;;;13.00;13.00;;;;;;;;5064519;28;45963;-79
2023/08/24 11:58:42;;;;;;;;;26.00;23.33;;;;;;;;5059141;27;45677;-74
2023/08/24 12:01:11;;;;;;;;;45.33;37.33;;;;;;;;5060258;27;45465;-75
2023/08/24 12:03:37;;;;;;;;;45.33;36.67;;;;;;;;5075398;27;45364;-77
2023/08/24 12:06:09;;;;;;;;;30.67;26.33;;;;;;;;5067137;28;46313;-76
2023/08/24 12:08:37;;;;;;;;;23.00;17.67;;;;;;;;5067565;27;45406;-74
2023/08/24 12:11:02;;;;;;;;;21.33;19.67;;;;;;;;5060177;27;45331;-75
2023/08/24 12:13:32;;;;;;;;;16.00;15.67;;;;;;;;5072376;27;45361;-75
2023/08/24 12:16:00;;;;;;;;;19.00;18.00;;;;;;;;5082231;27;45262;-75
2023/08/24 12:18:25;;;;;;;;;17.33;16.67;;;;;;;;5065488;27;45394;-75
2023/08/24 12:20:51;;;;;;;;;13.33;13.33;;;;;;;;5062155;27;45400;-78
2023/08/24 12:23:16;;;;;;;;;13.00;13.00;;;;;;;;5067737;27;45433;-78
2023/08/24 12:25:44;;;;;;;;;9.67;9.00;;;;;;;;5077864;27;45449;-74
2023/08/24 12:28:10;;;;;;;;;12.33;12.00;;;;;;;;5069934;27;45618;-75
2023/08/24 12:30:48;;;;;;;;;12.33;12.33;;;;;;;;5068636;27;45481;-78
2023/08/24 12:33:29;;;;;;;;;11.00;11.00;;;;;;;;5059255;27;45330;-78
2023/08/24 12:35:55;;;;;;;;;12.00;12.00;;;;;;;;5040747;28;47417;-78
2023/08/24 12:38:20;;;;;;;;;12.33;12.33;;;;;;;;5063702;27;46024;-77
2023/08/24 12:40:46;;;;;;;;;11.00;11.00;;;;;;;;5074143;27;45339;-79
2023/08/24 12:43:11;;;;;;;;;14.00;14.00;;;;;;;;5059404;27;45490;-76
2023/08/24 12:45:37;;;;;;;;;11.00;11.00;;;;;;;;5050652;28;47075;-76
2023/08/24 12:48:03;;;;;;;;;12.00;12.00;;;;;;;;5063775;28;45373;-76
2023/08/24 12:50:28;;;;;;;;;12.67;12.67;;;;;;;;5060362;28;45275;-76
2023/08/24 12:52:56;;;;;;;;;13.67;13.00;;;;;;;;5063741;28;45636;-76
2023/08/24 12:55:21;;;;;;;;;14.67;14.67;;;;;;;;5066979;28;45530;-76
2023/08/24 12:57:46;;;;;;;;;15.00;14.00;;;;;;;;5055613;28;48592;-76
2023/08/24 13:00:12;;;;;;;;;15.33;15.33;;;;;;;;5080182;28;45296;-76
2023/08/24 13:02:37;;;;;;;;;16.00;16.00;;;;;;;;5079984;28;45386;-76
2023/08/24 13:05:04;;;;;;;;;16.33;15.00;;;;;;;;5061289;28;47048;-75
2023/08/24 13:07:29;;;;;;;;;17.00;17.00;;;;;;;;5079803;28;45288;-76
2023/08/24 13:09:54;;;;;;;;;15.33;15.33;;;;;;;;5080111;28;45398;-78
2023/08/24 13:12:19;;;;;;;;;16.00;15.00;;;;;;;;5062930;28;45248;-79
2023/08/24 13:14:44;;;;;;;;;17.00;17.00;;;;;;;;5079976;28;45224;-79
2023/08/24 13:17:09;;;;;;;;;17.33;17.33;;;;;;;;5067942;28;46357;-80
2023/08/24 13:19:35;;;;;;;;;18.00;16.67;;;;;;;;5070434;28;45340;-78
2023/08/24 13:22:00;;;;;;;;;16.00;16.00;;;;;;;;5054379;28;45320;-79
2023/08/24 13:24:25;;;;;;;;;18.00;17.00;;;;;;;;5072714;28;45210;-78
2023/08/24 13:26:50;;;;;;;;;17.67;17.67;;;;;;;;5043684;28;47495;-78
2023/08/24 13:29:16;;;;;;;;;20.00;20.00;;;;;;;;5074365;27;45279;-78
2023/08/24 13:31:41;;;;;;;;;19.33;19.00;;;;;;;;5068912;28;45279;-78
2023/08/24 13:34:07;;;;;;;;;18.67;18.67;;;;;;;;5075764;28;45236;-77
2023/08/24 13:36:32;;;;;;;;;21.67;19.67;;;;;;;;5061169;28;47514;-76
2023/08/24 13:38:57;;;;;;;;;19.67;19.67;;;;;;;;5079369;28;45219;-77
2023/08/24 13:41:23;;;;;;;;;23.33;23.33;;;;;;;;5079437;28;45342;-76
2023/08/24 13:43:48;;;;;;;;;22.00;22.00;;;;;;;;5079449;28;45337;-76
2023/08/24 13:46:13;;;;;;;;;25.33;23.33;;;;;;;;5079267;28;45292;-76
2023/08/24 13:48:38;;;;;;;;;24.67;24.00;;;;;;;;5079217;28;45347;-76
2023/08/24 13:51:04;;;;;;;;;21.00;20.67;;;;;;;;5070036;28;45410;-75
2023/08/24 13:53:29;;;;;;;;;26.33;26.00;;;;;;;;5058914;28;45336;-78
2023/08/24 13:55:54;;;;;;;;;27.67;26.67;;;;;;;;5058925;28;46115;-78
2023/08/24 13:58:19;;;;;;;;;55.00;44.00;;;;;;;;5040478;28;45440;-77
2023/08/24 14:00:44;;;;;;;;;70.50;62.75;;;;;;;;5059110;28;45394;-77
2023/08/24 14:03:10;;;;;;;;;35.67;31.00;;;;;;;;5058712;28;45462;-77
2023/08/24 14:05:38;;;;;;;;;32.00;30.00;;;;;;;;5058557;28;45367;-79
2023/08/24 14:08:03;;;;;;;;;28.67;27.33;;;;;;;;5059063;28;45237;-76
2023/08/24 14:10:29;;;;;;;;;30.33;28.33;;;;;;;;5058969;28;45240;-76
2023/08/24 14:12:55;;;;;;;;;29.67;28.33;;;;;;;;5040652;28;46349;-77